CDT,Max TemperatureF,Mean TemperatureF,Min TemperatureF,Max Dew PointF,MeanDew PointF,Min DewpointF,Max Humidity, Mean Humidity, Min Humidity, Max Sea Level PressureIn, Mean Sea Level PressureIn, Min Sea Level PressureIn, Max VisibilityMiles, Mean VisibilityMiles, Min VisibilityMiles, Max Wind SpeedMPH, Mean Wind SpeedMPH, Max Gust SpeedMPH,PrecipitationIn, CloudCover, Events, WindDirDegrees
2012-10-1,82,67,52,54,50,43,90,61,26,29.94,29.90,29.84,10,10,8,13,4,26,0.01,2,,344
2012-10-2,77,65,55,48,46,40,72,55,27,30.02,29.96,29.90,10,10,10,9,4,,0.00,1,,329
2012-10-3,82,67,52,53,49,44,80,54,31,29.97,29.93,29.87,10,10,10,17,7,22,0.00,0,,176
2012-10-4,70,64,57,54,48,43,72,56,49,30.19,30.12,29.95,10,10,10,12,8,20,0.00,5,,37
2012-10-5,62,54,46,45,41,34,69,62,44,30.28,30.19,30.15,10,10,10,13,8,22,0.00,6,Rain,40
2012-10-6,51,46,39,35,32,28,76,59,43,30.37,30.31,30.26,10,10,10,14,7,20,0.00,6,,43
2012-10-7,53,42,34,37,32,25,93,69,36,30.38,30.32,30.26,10,10,8,10,2,,0.00,3,,204
2012-10-8,66,48,33,37,34,31,93,62,33,30.25,30.15,30.02,10,9,6,14,6,20,0.00,0,,190
2012-10-9,77,64,51,55,49,37,78,59,42,30.10,29.92,29.83,10,10,10,20,11,26,0.00,1,,193
2012-10-10,72,58,43,43,37,29,82,46,22,30.28,30.18,30.11,10,10,10,14,7,22,0.00,2,,97
2012-10-11,81,71,62,66,58,41,81,66,46,30.12,30.07,29.98,10,9,7,18,8,24,0.00,7,,184
2012-10-12,77,72,68,68,66,64,94,87,74,30.17,30.10,30.01,10,8,1,17,7,22,0.38,5,Rain-Thunderstorm,166
2012-10-13,75,70,63,70,66,49,94,82,60,29.97,29.82,29.65,10,9,2,33,15,48,0.44,4,Rain-Thunderstorm,188
2012-10-14,80,66,54,49,45,39,83,53,24,30.10,29.97,29.75,10,10,10,15,8,23,0.00,0,,284
2012-10-15,84,68,53,52,48,45,80,51,25,30.09,30.00,29.86,10,6,0,16,6,22,0.00,0,,212
2012-10-16,82,72,62,57,51,46,65,48,30,29.85,29.68,29.50,10,10,10,18,13,29,0.00,0,,183
2012-10-17,77,66,54,61,48,24,84,53,21,29.85,29.57,29.37,10,10,10,17,12,28,0.00,0,,286
2012-10-18,72,58,44,37,26,14,74,37,11,29.99,29.93,29.86,10,10,10,24,7,37,0.00,2,,292
2012-10-19,73,60,46,30,23,16,40,28,11,29.99,29.91,29.84,10,10,10,18,10,26,0.00,0,,282
2012-10-20,84,68,53,61,45,30,75,47,31,29.84,29.75,29.67,10,10,10,13,7,22,0.00,0,,164
2012-10-21,91,79,68,67,66,62,84,65,45,29.73,29.69,29.65,10,10,8,22,13,32,0.00,0,,177
2012-10-22,82,76,70,66,62,56,73,64,41,29.86,29.80,29.73,10,10,10,22,16,33,0.00,1,Rain,188
2012-10-23,86,78,71,67,66,64,84,71,53,29.84,29.79,29.72,10,10,10,25,15,33,0.00,2,,190
2012-10-24,78,74,69,66,65,62,87,75,66,29.86,29.79,29.68,10,10,10,23,15,33,0.00,3,,181
2012-10-25,73,58,43,62,45,34,74,64,49,30.26,29.96,29.68,10,10,10,23,15,32,0.00,4,,329
2012-10-26,53,44,35,34,28,23,79,58,33,30.48,30.38,30.27,10,10,10,14,8,26,0.00,2,,13
2012-10-27,55,40,28,28,25,22,82,57,30,30.43,30.34,30.23,10,10,10,7,2,,0.00,0,,39
2012-10-28,61,45,30,31,27,25,92,56,27,30.35,30.28,30.22,10,10,8,7,2,,0.00,0,,108
2012-10-29,66,52,37,30,27,23,62,42,23,30.29,30.21,30.09,10,10,10,12,7,17,0.00,0,,175
2012-10-30,80,62,45,40,36,30,58,41,22,30.07,29.96,29.85,10,10,10,16,7,23,0.00,0,,205
2012-10-31,73,58,42,41,37,34,79,52,26,30.09,30.02,29.94,10,10,10,7,4,,0.00,0,,58